createdAt,value
2023-05-10T00:01:51.115Z,43.86
2023-05-10T00:04:18.289Z,43.97
2023-05-10T00:06:45.410Z,43.94
2023-05-10T00:09:12.496Z,44.01
2023-05-10T00:11:40.940Z,43.92
2023-05-10T00:14:08.081Z,44.28
2023-05-10T00:16:35.200Z,44.43
2023-05-10T00:19:02.294Z,44.14
2023-05-10T00:21:29.538Z,44.39
2023-05-10T00:23:56.609Z,44.06
2023-05-10T00:26:23.681Z,44.05
2023-05-10T00:28:52.209Z,43.94
2023-05-10T00:31:19.486Z,44.06
2023-05-10T00:33:46.589Z,43.85
2023-05-10T00:36:13.698Z,44.23
2023-05-10T00:38:40.771Z,44.01
2023-05-10T00:41:07.863Z,43.99
2023-05-10T00:43:34.960Z,44.09
2023-05-10T00:46:03.889Z,43.92
2023-05-10T00:48:31.076Z,43.78
2023-05-10T00:50:58.379Z,43.84
2023-05-10T00:53:25.727Z,43.75
2023-05-10T00:55:52.928Z,43.98
2023-05-10T00:58:20.131Z,43.58
2023-05-10T01:00:47.563Z,44.05
2023-05-10T01:03:22.343Z,44.18
2023-05-10T01:05:49.528Z,44.20
2023-05-10T01:08:16.845Z,44.09
2023-05-10T01:10:44.718Z,44.30
2023-05-10T01:13:13.118Z,44.04
2023-05-10T01:15:40.823Z,43.90
2023-05-10T01:18:09.731Z,43.73
2023-05-10T01:20:44.044Z,43.67
2023-05-10T01:23:36.797Z,43.72
2023-05-10T01:26:36.068Z,43.53
2023-05-10T01:29:36.607Z,43.54
2023-05-10T01:32:15.837Z,43.61
2023-05-10T01:34:54.327Z,43.82
2023-05-10T01:37:26.564Z,43.62
2023-05-10T01:39:58.990Z,43.76
2023-05-10T01:42:29.789Z,43.46
2023-05-10T01:45:08.380Z,43.40
2023-05-10T01:47:41.396Z,43.53
2023-05-10T01:50:16.217Z,43.79
2023-05-10T01:52:48.450Z,43.65
2023-05-10T01:55:17.131Z,43.65
2023-05-10T01:57:47.283Z,43.78
2023-05-10T02:00:16.688Z,43.64
2023-05-10T02:02:48.338Z,43.57
2023-05-10T02:05:17.130Z,43.45
2023-05-10T02:07:45.717Z,43.79
2023-05-10T02:10:14.537Z,43.37
2023-05-10T02:12:44.192Z,43.44
2023-05-10T02:15:13.593Z,43.62
2023-05-10T02:17:43.105Z,43.40
2023-05-10T02:20:13.788Z,43.55
2023-05-10T02:22:42.573Z,43.34
2023-05-10T02:25:12.358Z,43.31
2023-05-10T02:27:41.575Z,43.25
2023-05-10T02:30:10.033Z,43.56
2023-05-10T02:32:38.746Z,43.40
2023-05-10T02:35:07.071Z,43.54
2023-05-10T02:37:37.610Z,43.48
2023-05-10T02:40:06.388Z,43.60
2023-05-10T02:42:36.903Z,43.51
2023-05-10T02:45:09.365Z,43.78
2023-05-10T02:47:36.653Z,43.77
2023-05-10T02:50:04.329Z,43.50
2023-05-10T02:52:40.319Z,43.50
2023-05-10T02:55:12.275Z,43.63
2023-05-10T02:57:42.878Z,43.51
2023-05-10T03:00:10.787Z,43.58
2023-05-10T03:02:37.970Z,43.35
2023-05-10T03:05:05.741Z,43.29
2023-05-10T03:07:33.964Z,43.60
2023-05-10T03:10:03.540Z,43.41
2023-05-10T03:12:47.969Z,43.52
2023-05-10T03:15:23.160Z,43.29
2023-05-10T03:17:56.416Z,43.28
2023-05-10T03:20:26.553Z,43.84
2023-05-10T03:23:00.536Z,43.61
2023-05-10T03:25:30.588Z,43.87
2023-05-10T03:27:58.171Z,43.85
2023-05-10T03:30:25.907Z,43.86
2023-05-10T03:32:53.162Z,43.72
2023-05-10T03:35:20.407Z,43.68
2023-05-10T03:37:47.515Z,43.62
2023-05-10T03:40:14.849Z,43.75
2023-05-10T03:42:43.361Z,43.61
2023-05-10T03:45:11.045Z,43.67
2023-05-10T03:47:38.187Z,43.44
2023-05-10T03:50:06.643Z,43.34
2023-05-10T03:52:33.797Z,43.60
2023-05-10T03:55:01.063Z,43.33
2023-05-10T03:57:28.266Z,43.55
2023-05-10T03:59:56.734Z,43.61
2023-05-10T04:02:23.905Z,43.48
2023-05-10T04:04:51.020Z,43.48
2023-05-10T04:07:18.202Z,43.53
2023-05-10T04:09:45.282Z,43.69
2023-05-10T04:12:12.346Z,43.64
2023-05-10T04:14:39.509Z,43.49
2023-05-10T04:17:08.045Z,43.74
2023-05-10T04:19:36.365Z,43.60
2023-05-10T04:22:04.010Z,43.75
2023-05-10T04:24:31.085Z,43.76
2023-05-10T04:26:58.170Z,44.02
2023-05-10T04:29:25.285Z,43.68
2023-05-10T04:31:52.373Z,44.61
2023-05-10T04:34:21.416Z,44.36
2023-05-10T04:36:48.510Z,44.02
2023-05-10T04:39:15.569Z,45.04
2023-05-10T04:41:42.646Z,44.93
2023-05-10T04:44:09.752Z,44.95
2023-05-10T04:46:36.862Z,45.26
2023-05-10T04:49:04.005Z,45.56
2023-05-10T04:51:32.560Z,45.17
2023-05-10T04:54:05.907Z,45.11
2023-05-10T04:56:33.480Z,45.12
2023-05-10T04:59:00.712Z,44.79
2023-05-10T05:01:27.909Z,44.68
2023-05-10T05:03:55.218Z,44.45
2023-05-10T05:06:22.482Z,44.15
2023-05-10T05:08:50.892Z,44.25
2023-05-10T05:11:18.432Z,44.57
2023-05-10T05:13:45.675Z,44.80
2023-05-10T05:16:12.862Z,51.77
2023-05-10T05:18:40.064Z,47.56
2023-05-10T05:21:15.164Z,48.86
2023-05-10T05:23:42.257Z,48.17
2023-05-10T05:26:10.801Z,47.08
2023-05-10T05:28:37.980Z,46.31
2023-05-10T05:31:05.114Z,45.68
2023-05-10T05:33:32.233Z,45.76
2023-05-10T05:36:01.964Z,45.65
2023-05-10T05:38:29.054Z,45.62
2023-05-10T05:40:56.174Z,45.46
2023-05-10T05:43:24.688Z,45.45
2023-05-10T05:45:53.313Z,45.22
2023-05-10T05:48:20.614Z,44.94
2023-05-10T05:50:47.706Z,44.98
2023-05-10T05:53:14.793Z,45.01
2023-05-10T05:55:41.894Z,44.62
2023-05-10T05:58:08.978Z,44.65
2023-05-10T06:00:37.473Z,44.71
2023-05-10T06:03:04.626Z,44.35
2023-05-10T06:05:31.784Z,44.38
2023-05-10T06:08:00.871Z,44.37
2023-05-10T06:10:27.976Z,44.74
2023-05-10T06:12:55.099Z,44.43
2023-05-10T06:15:22.409Z,44.53
2023-05-10T06:17:50.895Z,44.32
2023-05-10T06:20:18.239Z,44.67
2023-05-10T06:22:45.400Z,44.38
2023-05-10T06:25:12.700Z,44.72
2023-05-10T06:27:39.771Z,44.72
2023-05-10T06:30:13.030Z,44.40
2023-05-10T06:32:40.816Z,44.15
2023-05-10T06:35:10.163Z,44.06
2023-05-10T06:37:37.251Z,44.08
2023-05-10T06:40:05.458Z,44.36
2023-05-10T06:42:32.571Z,44.28
2023-05-10T06:44:59.649Z,44.39
2023-05-10T06:47:26.773Z,44.40
2023-05-10T06:49:53.904Z,44.41
2023-05-10T06:52:22.331Z,45.00
2023-05-10T06:54:49.392Z,44.94
2023-05-10T06:57:27.541Z,44.93
2023-05-10T06:59:59.685Z,44.89
2023-05-10T07:02:26.900Z,45.22
2023-05-10T07:04:54.261Z,45.17
2023-05-10T07:07:22.787Z,44.75
2023-05-10T07:09:50.054Z,44.93
2023-05-10T07:12:17.230Z,44.48
2023-05-10T07:14:44.347Z,44.54
2023-05-10T07:17:11.530Z,44.44
2023-05-10T07:19:38.621Z,44.59
2023-05-10T07:22:05.730Z,44.30
2023-05-10T07:24:34.892Z,44.22
2023-05-10T07:27:02.053Z,44.11
2023-05-10T07:29:29.186Z,44.29
2023-05-10T07:31:58.730Z,44.53
2023-05-10T07:34:26.244Z,44.41
2023-05-10T07:36:53.573Z,44.16
2023-05-10T07:39:26.607Z,44.23
2023-05-10T07:41:56.026Z,43.95
2023-05-10T07:44:23.173Z,44.12
2023-05-10T07:46:50.763Z,44.64
2023-05-10T07:49:17.975Z,44.43
2023-05-10T07:51:45.116Z,44.44
2023-05-10T07:54:12.220Z,44.35
2023-05-10T07:56:39.359Z,45.00
2023-05-10T07:59:09.380Z,44.78
2023-05-10T08:01:37.811Z,44.71
2023-05-10T08:04:05.012Z,44.27
2023-05-10T08:06:32.198Z,44.10
2023-05-10T08:08:59.279Z,44.25
2023-05-10T08:11:26.417Z,44.24
2023-05-10T08:13:53.512Z,44.31
2023-05-10T08:16:22.006Z,44.46
2023-05-10T08:18:49.158Z,44.12
2023-05-10T08:21:16.546Z,44.02
2023-05-10T08:23:43.824Z,44.26
2023-05-10T08:26:10.903Z,44.22
2023-05-10T08:28:38.257Z,44.24
2023-05-10T08:31:05.716Z,44.20
2023-05-10T08:33:34.198Z,44.20
2023-05-10T08:36:01.333Z,44.26
2023-05-10T08:38:28.438Z,44.33
2023-05-10T08:40:56.478Z,44.25
2023-05-10T08:43:27.872Z,44.15
2023-05-10T08:45:55.934Z,44.07
2023-05-10T08:48:24.935Z,44.57
2023-05-10T08:50:54.875Z,44.29
2023-05-10T08:53:24.045Z,44.20
2023-05-10T08:55:51.436Z,44.23
2023-05-10T08:58:18.681Z,44.26
2023-05-10T09:00:46.472Z,44.33
2023-05-10T09:03:13.897Z,44.79
2023-05-10T09:05:41.031Z,44.46
2023-05-10T09:08:09.765Z,44.58
2023-05-10T09:10:37.892Z,44.35
2023-05-10T09:13:05.480Z,44.73
2023-05-10T09:15:32.549Z,44.55
2023-05-10T09:17:59.775Z,44.47
2023-05-10T09:20:26.900Z,44.73
2023-05-10T09:22:54.079Z,44.52
2023-05-10T09:25:22.507Z,44.34
2023-05-10T09:27:49.842Z,44.49
2023-05-10T09:30:18.192Z,44.03
2023-05-10T09:32:46.789Z,44.16
2023-05-10T09:35:15.808Z,44.44
2023-05-10T09:37:45.354Z,44.03
2023-05-10T09:40:14.077Z,43.96
2023-05-10T09:42:53.913Z,44.41
2023-05-10T09:45:21.970Z,45.17
2023-05-10T09:47:49.098Z,45.26
2023-05-10T09:50:16.325Z,44.71
2023-05-10T09:52:50.704Z,47.51
2023-05-10T09:55:19.482Z,47.19
2023-05-10T09:57:49.034Z,54.22
2023-05-10T10:00:20.183Z,48.78
2023-05-10T10:02:49.295Z,45.71
2023-05-10T10:05:16.765Z,45.32
2023-05-10T10:07:44.115Z,45.03
2023-05-10T10:10:11.334Z,44.73
2023-05-10T10:12:38.892Z,44.80
2023-05-10T10:15:08.994Z,44.39
2023-05-10T10:17:37.592Z,44.16
2023-05-10T10:20:05.464Z,44.14
2023-05-10T10:22:32.621Z,44.42
2023-05-10T10:25:00.234Z,44.07
2023-05-10T10:27:36.493Z,44.36
2023-05-10T10:30:16.041Z,44.46
2023-05-10T10:33:05.610Z,44.45
2023-05-10T10:35:37.959Z,44.57
2023-05-10T10:38:05.158Z,44.29
2023-05-10T10:40:35.066Z,44.56
2023-05-10T10:43:23.712Z,44.56
2023-05-10T10:46:16.670Z,44.83
2023-05-10T10:48:49.181Z,44.33
2023-05-10T10:51:16.287Z,44.60
2023-05-10T10:53:44.376Z,44.67
2023-05-10T10:56:13.654Z,44.43
2023-05-10T10:58:41.013Z,44.18
2023-05-10T11:01:17.416Z,44.18
2023-05-10T11:04:18.612Z,44.19
2023-05-10T11:06:45.813Z,44.32
2023-05-10T11:09:13.423Z,44.26
2023-05-10T11:11:50.325Z,44.41
2023-05-10T11:14:21.209Z,44.43
2023-05-10T11:16:49.759Z,44.98
2023-05-10T11:19:18.121Z,45.22
2023-05-10T11:21:47.193Z,45.14
2023-05-10T11:24:16.274Z,44.88
2023-05-10T11:26:43.408Z,44.81
2023-05-10T11:29:10.611Z,45.10
2023-05-10T11:31:43.707Z,44.63
2023-05-10T11:34:12.277Z,44.75
2023-05-10T11:36:39.356Z,44.54
2023-05-10T11:39:06.737Z,44.48
2023-05-10T11:41:33.955Z,45.08
2023-05-10T11:44:01.189Z,45.00
2023-05-10T11:46:28.974Z,45.07
2023-05-10T11:48:59.386Z,45.21
2023-05-10T11:51:28.060Z,45.30
2023-05-10T11:53:57.132Z,45.22
2023-05-10T11:56:24.678Z,44.82
2023-05-10T11:58:54.199Z,45.12
2023-05-10T12:01:21.621Z,45.27
2023-05-10T12:03:49.674Z,45.41
2023-05-10T12:06:17.023Z,45.28
2023-05-10T12:08:47.331Z,45.11
2023-05-10T12:11:15.059Z,45.51
2023-05-10T12:13:43.441Z,45.43
2023-05-10T12:16:14.762Z,44.97
2023-05-10T12:18:42.128Z,44.90
2023-05-10T12:21:11.327Z,44.99
2023-05-10T12:23:38.565Z,45.26
2023-05-10T12:26:07.257Z,44.76
2023-05-10T12:28:34.521Z,44.75
2023-05-10T12:31:02.783Z,44.94
2023-05-10T12:33:37.030Z,44.69
2023-05-10T12:36:04.393Z,44.78
2023-05-10T12:38:34.150Z,44.97
2023-05-10T12:41:02.335Z,45.17
2023-05-10T12:43:31.251Z,44.79
2023-05-10T12:45:58.560Z,44.94
2023-05-10T12:48:25.762Z,44.86
2023-05-10T12:50:52.866Z,44.73
2023-05-10T12:53:19.956Z,45.11
2023-05-10T12:55:47.026Z,44.80
2023-05-10T12:58:31.458Z,44.51
2023-05-10T13:01:03.876Z,44.39
2023-05-10T13:03:31.212Z,44.00
2023-05-10T13:05:58.439Z,43.71
2023-05-10T13:08:25.496Z,44.41
2023-05-10T13:10:52.859Z,44.12
2023-05-10T13:13:19.929Z,43.98
2023-05-10T13:15:47.004Z,44.33
2023-05-10T13:18:15.526Z,44.15
2023-05-10T13:20:42.662Z,44.29
2023-05-10T13:23:09.733Z,44.58
2023-05-10T13:25:36.902Z,44.68
2023-05-10T13:28:03.997Z,44.51
2023-05-10T13:30:31.090Z,44.78
2023-05-10T13:32:58.244Z,45.04
2023-05-10T13:35:26.786Z,44.77
2023-05-10T13:37:53.889Z,44.88
2023-05-10T13:40:21.009Z,45.14
2023-05-10T13:42:48.106Z,45.13
2023-05-10T13:45:15.554Z,44.93
2023-05-10T13:47:43.014Z,44.84
2023-05-10T13:50:10.545Z,44.94
2023-05-10T13:52:38.950Z,53.33
2023-05-10T13:55:06.450Z,47.89
2023-05-10T13:57:33.875Z,46.62
2023-05-10T14:00:01.090Z,45.76
2023-05-10T14:02:28.291Z,46.31
2023-05-10T14:04:55.449Z,46.07
2023-05-10T14:07:22.521Z,46.19
2023-05-10T14:09:51.021Z,45.98
2023-05-10T14:12:18.135Z,45.92
2023-05-10T14:14:45.214Z,45.75
2023-05-10T14:17:12.616Z,46.08
2023-05-10T14:19:40.019Z,45.63
2023-05-10T14:22:07.295Z,46.00
2023-05-10T14:24:34.401Z,45.66
2023-05-10T14:27:02.880Z,45.79
2023-05-10T14:29:29.959Z,45.75
2023-05-10T14:31:57.126Z,46.01
2023-05-10T14:34:24.228Z,45.99
2023-05-10T14:36:51.293Z,45.91
2023-05-10T14:39:18.391Z,46.18
2023-05-10T14:41:45.592Z,46.17
2023-05-10T14:44:14.142Z,46.18
2023-05-10T14:46:41.239Z,46.11
2023-05-10T14:49:08.598Z,46.24
2023-05-10T14:51:35.697Z,46.68
2023-05-10T14:54:02.855Z,46.27
2023-05-10T14:56:29.926Z,46.01
2023-05-10T14:58:57.018Z,46.34
2023-05-10T15:01:26.167Z,46.26
2023-05-10T15:03:53.774Z,46.05
2023-05-10T15:06:24.760Z,46.04
2023-05-10T15:08:51.896Z,46.38
2023-05-10T15:11:19.596Z,46.28
2023-05-10T15:13:46.704Z,45.99
2023-05-10T15:16:13.914Z,46.40
2023-05-10T15:18:42.392Z,46.22
2023-05-10T15:21:09.787Z,46.16
2023-05-10T15:23:36.924Z,46.19
2023-05-10T15:26:04.049Z,45.95
2023-05-10T15:28:32.420Z,45.95
2023-05-10T15:31:00.976Z,45.89
2023-05-10T15:33:28.086Z,46.41
2023-05-10T15:35:56.495Z,46.23
2023-05-10T15:38:23.654Z,46.50
2023-05-10T15:40:50.733Z,46.44
2023-05-10T15:43:17.846Z,46.48
2023-05-10T15:45:44.958Z,46.16
2023-05-10T15:48:12.097Z,46.44
2023-05-10T15:50:39.167Z,45.92
2023-05-10T15:53:07.636Z,45.77
2023-05-10T15:55:34.715Z,45.74
2023-05-10T15:58:01.805Z,46.17
2023-05-10T16:00:28.996Z,45.86
2023-05-10T16:02:56.190Z,46.11
2023-05-10T16:05:23.319Z,46.02
2023-05-10T16:07:50.413Z,46.01
2023-05-10T16:10:18.848Z,45.67
2023-05-10T16:12:46.102Z,45.76
2023-05-10T16:15:13.221Z,45.71
2023-05-10T16:17:40.375Z,45.79
2023-05-10T16:20:08.466Z,46.21
2023-05-10T16:22:35.771Z,46.21
2023-05-10T16:25:02.863Z,46.13
2023-05-10T16:27:31.391Z,45.86
2023-05-10T16:29:58.615Z,46.17
2023-05-10T16:32:25.780Z,46.07
2023-05-10T16:34:52.959Z,46.10
2023-05-10T16:37:20.132Z,45.54
2023-05-10T16:39:47.218Z,45.59
2023-05-10T16:42:14.298Z,45.50
2023-05-10T16:44:42.851Z,45.82
2023-05-10T16:47:09.960Z,45.88
2023-05-10T16:49:37.081Z,45.79
2023-05-10T16:52:04.265Z,45.81
2023-05-10T16:54:31.351Z,45.76
2023-05-10T16:56:58.430Z,45.37
2023-05-10T16:59:25.501Z,45.79
2023-05-10T17:01:54.835Z,45.63
2023-05-10T17:04:21.968Z,45.83
2023-05-10T17:06:49.105Z,45.86
2023-05-10T17:09:16.186Z,45.69
2023-05-10T17:11:43.265Z,45.90
2023-05-10T17:14:10.376Z,45.73
2023-05-10T17:16:37.545Z,45.85
2023-05-10T17:19:06.036Z,45.67
2023-05-10T17:21:33.197Z,45.82
2023-05-10T17:24:00.288Z,45.26
2023-05-10T17:26:27.487Z,45.42
2023-05-10T17:28:54.634Z,45.45
2023-05-10T17:31:21.765Z,45.63
2023-05-10T17:33:48.902Z,45.31
2023-05-10T17:36:17.393Z,45.78
2023-05-10T17:38:44.494Z,45.68
2023-05-10T17:41:11.611Z,45.63
2023-05-10T17:43:38.710Z,45.89
2023-05-10T17:46:05.928Z,45.72
2023-05-10T17:48:33.194Z,45.79
2023-05-10T17:51:00.288Z,46.13
2023-05-10T17:53:28.742Z,45.84
2023-05-10T17:55:55.830Z,45.63
2023-05-10T17:58:22.931Z,45.74
2023-05-10T18:00:51.622Z,45.97
2023-05-10T18:03:19.041Z,46.22
2023-05-10T18:05:47.470Z,45.82
2023-05-10T18:08:14.784Z,45.83
2023-05-10T18:10:43.185Z,45.78
2023-05-10T18:13:10.318Z,45.52
2023-05-10T18:15:37.441Z,44.98
2023-05-10T18:18:05.018Z,44.71
2023-05-10T18:20:32.171Z,44.21
2023-05-10T18:22:59.329Z,44.09
2023-05-10T18:25:26.514Z,43.87
2023-05-10T18:27:55.210Z,44.05
2023-05-10T18:30:22.333Z,44.25
2023-05-10T18:32:49.449Z,44.33
2023-05-10T18:35:16.558Z,47.09
2023-05-10T18:37:43.891Z,43.83
2023-05-10T18:40:11.244Z,43.75
2023-05-10T18:42:38.417Z,42.79
2023-05-10T18:45:08.374Z,42.97
2023-05-10T18:47:35.515Z,42.68
2023-05-10T18:50:03.642Z,42.55
2023-05-10T18:52:30.907Z,42.16
2023-05-10T18:54:58.002Z,41.71
2023-05-10T18:57:25.117Z,41.52
2023-05-10T18:59:52.167Z,41.15
2023-05-10T19:02:20.844Z,41.59
2023-05-10T19:04:48.007Z,41.44
2023-05-10T19:07:15.102Z,41.65
2023-05-10T19:09:42.176Z,41.86
2023-05-10T19:12:09.332Z,41.68
2023-05-10T19:14:36.436Z,41.94
2023-05-10T19:17:03.621Z,42.10
2023-05-10T19:19:32.443Z,42.17
2023-05-10T19:21:59.676Z,42.48
2023-05-10T19:24:26.761Z,42.11
2023-05-10T19:26:53.955Z,42.11
2023-05-10T19:29:21.072Z,42.51
2023-05-10T19:31:48.158Z,42.19
2023-05-10T19:34:15.488Z,42.57
2023-05-10T19:36:44.291Z,42.41
2023-05-10T19:39:11.575Z,42.41
2023-05-10T19:41:38.781Z,42.19
2023-05-10T19:44:05.941Z,42.08
2023-05-10T19:46:33.101Z,42.54
2023-05-10T19:49:00.248Z,42.32
2023-05-10T19:51:27.326Z,42.53
2023-05-10T19:53:55.732Z,42.54
2023-05-10T19:56:22.815Z,42.76
2023-05-10T19:58:49.891Z,43.06
2023-05-10T20:01:17.083Z,43.15
2023-05-10T20:03:44.298Z,42.91
2023-05-10T20:06:11.362Z,43.37
2023-05-10T20:08:38.444Z,43.54
2023-05-10T20:11:06.892Z,43.35
2023-05-10T20:13:33.970Z,43.53
2023-05-10T20:16:01.088Z,43.62
2023-05-10T20:18:28.222Z,43.44
2023-05-10T20:20:55.576Z,43.47
2023-05-10T20:23:22.949Z,43.33
2023-05-10T20:25:50.481Z,43.62
2023-05-10T20:28:21.718Z,43.84
2023-05-10T20:30:52.904Z,43.78
2023-05-10T20:33:20.568Z,43.24
2023-05-10T20:35:47.882Z,43.51
2023-05-10T20:38:15.003Z,43.57
2023-05-10T20:40:42.077Z,43.58
2023-05-10T20:43:09.208Z,43.90
2023-05-10T20:45:37.938Z,43.73
2023-05-10T20:48:05.706Z,44.23
2023-05-10T20:50:32.898Z,44.27
2023-05-10T20:53:00.675Z,44.41
2023-05-10T20:55:27.878Z,44.15
2023-05-10T20:57:54.970Z,44.58
2023-05-10T21:00:22.166Z,44.32
2023-05-10T21:02:50.646Z,44.30
2023-05-10T21:05:17.984Z,44.34
2023-05-10T21:07:45.159Z,44.45
2023-05-10T21:10:12.468Z,44.49
2023-05-10T21:12:39.615Z,44.17
2023-05-10T21:15:08.098Z,44.27
2023-05-10T21:17:35.277Z,44.05
2023-05-10T21:20:04.177Z,44.15
2023-05-10T21:22:31.299Z,44.03
2023-05-10T21:24:58.579Z,44.40
2023-05-10T21:27:25.643Z,44.65
2023-05-10T21:29:52.803Z,44.46
2023-05-10T21:32:20.245Z,44.30
2023-05-10T21:34:47.396Z,44.39
2023-05-10T21:37:16.716Z,44.61
2023-05-10T21:39:43.878Z,44.76
2023-05-10T21:42:10.978Z,44.81
2023-05-10T21:44:38.079Z,44.51
2023-05-10T21:47:05.371Z,44.43
2023-05-10T21:49:32.453Z,44.83
2023-05-10T21:51:59.561Z,44.68
2023-05-10T21:54:28.180Z,44.36
2023-05-10T21:56:55.270Z,44.33
2023-05-10T21:59:22.353Z,44.49
2023-05-10T22:01:49.452Z,44.48
2023-05-10T22:04:16.756Z,44.62
2023-05-10T22:06:43.831Z,44.51
2023-05-10T22:09:10.914Z,44.44
2023-05-10T22:11:39.371Z,44.42
2023-05-10T22:14:06.769Z,44.31
2023-05-10T22:16:33.918Z,44.11
2023-05-10T22:19:01.079Z,44.27
2023-05-10T22:21:28.226Z,44.20
2023-05-10T22:23:55.695Z,44.33
2023-05-10T22:26:22.785Z,44.70
2023-05-10T22:28:51.264Z,44.79
2023-05-10T22:31:18.349Z,44.72
2023-05-10T22:33:45.443Z,44.77
2023-05-10T22:36:12.781Z,44.92
2023-05-10T22:38:39.855Z,44.70
2023-05-10T22:41:06.940Z,44.47
2023-05-10T22:43:34.049Z,44.65
2023-05-10T22:46:02.534Z,44.25
2023-05-10T22:48:29.693Z,44.16
2023-05-10T22:50:56.821Z,44.17
2023-05-10T22:53:23.919Z,44.46
2023-05-10T22:55:51.390Z,44.33
2023-05-10T22:58:18.603Z,44.57
2023-05-10T23:00:45.713Z,44.55
2023-05-10T23:03:14.237Z,44.24
2023-05-10T23:05:41.369Z,44.27
2023-05-10T23:08:08.477Z,44.33
2023-05-10T23:10:35.549Z,44.43
2023-05-10T23:13:02.673Z,44.75
2023-05-10T23:15:29.825Z,44.51
2023-05-10T23:17:56.950Z,44.42
2023-05-10T23:20:25.419Z,44.50
2023-05-10T23:22:52.752Z,44.62
2023-05-10T23:25:19.834Z,44.78
2023-05-10T23:27:46.949Z,44.77
2023-05-10T23:30:14.336Z,44.37
2023-05-10T23:32:41.468Z,44.45
2023-05-10T23:35:09.380Z,44.42
2023-05-10T23:37:37.995Z,44.47
2023-05-10T23:40:06.178Z,44.58
2023-05-10T23:42:33.429Z,44.67
2023-05-10T23:45:00.617Z,44.63
2023-05-10T23:47:27.714Z,44.34
2023-05-10T23:49:54.854Z,44.71
2023-05-10T23:52:21.920Z,44.48
2023-05-10T23:54:50.436Z,44.52
2023-05-10T23:57:17.618Z,44.72
2023-05-10T23:59:44.935Z,44.63
